THY94HB OOMS-LTFM
Flight info
| Callsign | THY94HB |
|---|---|
| Flight time | 4h 50m |
| Altitude | 34000 |
| Route | MCT T506 TULBU G652 TOKRA DCT MEDPO DCT BOSOB DCT SITUK M321 KSA T503 BONIS/N0481F360 T503 OVANO L768 FIRAS R655 KTN Q538 ALE M861 NISAP UM861 BUK UL615 ERSEN |
| Aircraft | B77L/H-SDE1E2E3FGHIJ2J3J4J5M1RWXY/LB1D1 |
Departure
| Time | 2026-05-08 13:41 |
|---|---|
| Airport | Muscat International Airport (OOMS) |
Arrival
| Time | 2026-05-08 18:32 |
|---|---|
| Airport | İstanbul Airport (LTFM) |
| Time | Latitude | Longitude | Altitude | Speed | Heading |
|---|---|---|---|---|---|
| 2026-05-08 13:21 | 23.59850 | 58.30153 | 49 ft | 0 kts | 355° |
| 2026-05-08 13:33 | 23.59828 | 58.30154 | 47 ft | 4 kts | 1° |
| 2026-05-08 13:33 | 23.59801 | 58.30152 | 44 ft | 4 kts | 12° |
| 2026-05-08 13:33 | 23.59775 | 58.30143 | 45 ft | 4 kts | 25° |
| 2026-05-08 13:34 | 23.59753 | 58.30128 | 44 ft | 4 kts | 46° |
| 2026-05-08 13:34 | 23.59739 | 58.30105 | 42 ft | 4 kts | 79° |
| 2026-05-08 13:34 | 23.59737 | 58.30093 | 42 ft | 1 kts | 85° |
| 2026-05-08 13:38 | 23.59739 | 58.30113 | 43 ft | 10 kts | 85° |
| 2026-05-08 13:38 | 23.59745 | 58.30193 | 49 ft | 11 kts | 85° |
| 2026-05-08 13:38 | 23.59751 | 58.30275 | 49 ft | 11 kts | 85° |
| 2026-05-08 13:38 | 23.59731 | 58.30350 | 48 ft | 11 kts | 139° |
| 2026-05-08 13:39 | 23.59672 | 58.30325 | 49 ft | 11 kts | 252° |
| 2026-05-08 13:39 | 23.59656 | 58.30229 | 49 ft | 12 kts | 261° |
| 2026-05-08 13:39 | 23.59619 | 58.30167 | 49 ft | 9 kts | 189° |
| 2026-05-08 13:39 | 23.59553 | 58.30167 | 47 ft | 10 kts | 179° |
| 2026-05-08 13:40 | 23.59475 | 58.30156 | 48 ft | 12 kts | 211° |
| 2026-05-08 13:40 | 23.59444 | 58.30071 | 48 ft | 16 kts | 261° |
| 2026-05-08 13:40 | 23.59422 | 58.29803 | 48 ft | 65 kts | 265° |
| 2026-05-08 13:40 | 23.59365 | 58.29096 | 48 ft | 121 kts | 264° |
| 2026-05-08 13:41 | 23.59276 | 58.28001 | 49 ft | 167 kts | 263° |
| 2026-05-08 13:41 | 23.59163 | 58.26660 | 319 ft | 177 kts | 264° |
| 2026-05-08 13:41 | 23.58979 | 58.25312 | 730 ft | 182 kts | 264° |
| 2026-05-08 13:41 | 23.58782 | 58.23959 | 1150 ft | 183 kts | 264° |
| 2026-05-08 13:42 | 23.58566 | 58.22589 | 1605 ft | 183 kts | 266° |
| 2026-05-08 13:42 | 23.58382 | 58.21198 | 1999 ft | 187 kts | 265° |
| 2026-05-08 13:42 | 23.58208 | 58.19780 | 2371 ft | 193 kts | 267° |
| 2026-05-08 13:42 | 23.58069 | 58.18259 | 2587 ft | 209 kts | 268° |
| 2026-05-08 13:43 | 23.57950 | 58.16665 | 3003 ft | 212 kts | 268° |
| 2026-05-08 13:43 | 23.57837 | 58.15060 | 3476 ft | 213 kts | 268° |
| 2026-05-08 13:43 | 23.57720 | 58.13442 | 3959 ft | 213 kts | 269° |
| 2026-05-08 13:43 | 23.57668 | 58.11826 | 4451 ft | 214 kts | 267° |
| 2026-05-08 13:44 | 23.57407 | 58.10217 | 4773 ft | 223 kts | 247° |
| 2026-05-08 13:44 | 23.56497 | 58.08785 | 4942 ft | 235 kts | 232° |
| 2026-05-08 13:44 | 23.55451 | 58.07393 | 5413 ft | 238 kts | 231° |
| 2026-05-08 13:44 | 23.54411 | 58.05990 | 5860 ft | 245 kts | 232° |
| 2026-05-08 13:45 | 23.53331 | 58.04520 | 6276 ft | 251 kts | 232° |
| 2026-05-08 13:45 | 23.52230 | 58.03014 | 6757 ft | 256 kts | 233° |
| 2026-05-08 13:45 | 23.51110 | 58.01472 | 7249 ft | 261 kts | 232° |
| 2026-05-08 13:45 | 23.50001 | 57.99940 | 7731 ft | 266 kts | 232° |
| 2026-05-08 13:46 | 23.48854 | 57.98351 | 8229 ft | 271 kts | 232° |
| 2026-05-08 13:46 | 23.47664 | 57.96700 | 8656 ft | 281 kts | 232° |
| 2026-05-08 13:46 | 23.46457 | 57.95025 | 9234 ft | 285 kts | 231° |
| 2026-05-08 13:46 | 23.45224 | 57.93311 | 9821 ft | 289 kts | 231° |
| 2026-05-08 13:47 | 23.43955 | 57.91546 | 10260 ft | 301 kts | 232° |
| 2026-05-08 13:47 | 23.42612 | 57.89674 | 10353 ft | 325 kts | 232° |
| 2026-05-08 13:47 | 23.41164 | 57.87658 | 10509 ft | 348 kts | 233° |
| 2026-05-08 13:47 | 23.39629 | 57.85521 | 10702 ft | 366 kts | 232° |
| 2026-05-08 13:48 | 23.38063 | 57.83342 | 11278 ft | 373 kts | 232° |
| 2026-05-08 13:48 | 23.36448 | 57.81095 | 11976 ft | 378 kts | 232° |
| 2026-05-08 13:48 | 23.34808 | 57.78819 | 12634 ft | 385 kts | 232° |
| 2026-05-08 13:48 | 23.33151 | 57.76518 | 13475 ft | 386 kts | 232° |
| 2026-05-08 13:49 | 23.31500 | 57.74226 | 14184 ft | 388 kts | 232° |
| 2026-05-08 13:49 | 23.29821 | 57.71895 | 14830 ft | 393 kts | 231° |
| 2026-05-08 13:49 | 23.28124 | 57.69540 | 15515 ft | 398 kts | 231° |
| 2026-05-08 13:49 | 23.26390 | 57.67138 | 16014 ft | 405 kts | 231° |
| 2026-05-08 13:50 | 23.24642 | 57.64716 | 16634 ft | 410 kts | 230° |
| 2026-05-08 13:50 | 23.22866 | 57.62253 | 17112 ft | 418 kts | 231° |
| 2026-05-08 13:50 | 23.21056 | 57.59747 | 17638 ft | 424 kts | 229° |
| 2026-05-08 13:50 | 23.19248 | 57.57246 | 18189 ft | 428 kts | 230° |
| 2026-05-08 13:51 | 23.17402 | 57.54691 | 18711 ft | 430 kts | 229° |
| 2026-05-08 13:51 | 23.15551 | 57.52130 | 19285 ft | 432 kts | 229° |
| 2026-05-08 13:51 | 23.13689 | 57.49554 | 19822 ft | 434 kts | 230° |
| 2026-05-08 13:51 | 23.11819 | 57.46966 | 20336 ft | 437 kts | 230° |
| 2026-05-08 13:52 | 23.09919 | 57.44343 | 20855 ft | 440 kts | 230° |
| 2026-05-08 13:52 | 23.08042 | 57.41754 | 21353 ft | 442 kts | 230° |
| 2026-05-08 13:52 | 23.06124 | 57.39108 | 21762 ft | 447 kts | 231° |
| 2026-05-08 13:52 | 23.04201 | 57.36453 | 22289 ft | 448 kts | 231° |
| 2026-05-08 13:53 | 23.02251 | 57.33766 | 22699 ft | 453 kts | 231° |
| 2026-05-08 13:53 | 23.00371 | 57.31043 | 23046 ft | 459 kts | 235° |
| 2026-05-08 13:53 | 22.98706 | 57.28078 | 23512 ft | 461 kts | 242° |
| 2026-05-08 13:53 | 22.97240 | 57.24976 | 23972 ft | 461 kts | 243° |
| 2026-05-08 13:54 | 22.95790 | 57.21862 | 24332 ft | 463 kts | 243° |
| 2026-05-08 13:54 | 22.94328 | 57.18730 | 24672 ft | 466 kts | 243° |
| 2026-05-08 13:54 | 22.92850 | 57.15591 | 25138 ft | 466 kts | 243° |
| 2026-05-08 13:54 | 22.91363 | 57.12454 | 25536 ft | 468 kts | 243° |
| 2026-05-08 13:55 | 22.89861 | 57.09302 | 25796 ft | 473 kts | 242° |
| 2026-05-08 13:55 | 22.88356 | 57.06155 | 26186 ft | 474 kts | 243° |
| 2026-05-08 13:55 | 22.85341 | 56.99851 | 26950 ft | 476 kts | 243° |
| 2026-05-08 13:56 | 22.83822 | 56.96672 | 27364 ft | 477 kts | 243° |
| 2026-05-08 13:56 | 22.82293 | 56.93482 | 27845 ft | 477 kts | 243° |
| 2026-05-08 13:56 | 22.80766 | 56.90290 | 28282 ft | 477 kts | 243° |
| 2026-05-08 13:56 | 22.79248 | 56.87119 | 28656 ft | 479 kts | 243° |
| 2026-05-08 13:57 | 22.77704 | 56.83893 | 29025 ft | 480 kts | 243° |
| 2026-05-08 13:57 | 22.76174 | 56.80698 | 29328 ft | 483 kts | 243° |
| 2026-05-08 13:57 | 22.74613 | 56.77443 | 29547 ft | 487 kts | 243° |
| 2026-05-08 13:57 | 22.73053 | 56.74187 | 29930 ft | 488 kts | 243° |
| 2026-05-08 13:58 | 22.71485 | 56.70919 | 30174 ft | 489 kts | 243° |
| 2026-05-08 13:58 | 22.69912 | 56.67641 | 30418 ft | 492 kts | 243° |
| 2026-05-08 13:58 | 22.68332 | 56.64351 | 30867 ft | 488 kts | 243° |
| 2026-05-08 13:58 | 22.66788 | 56.61138 | 31299 ft | 486 kts | 243° |
| 2026-05-08 13:59 | 22.65219 | 56.57876 | 31612 ft | 487 kts | 243° |
| 2026-05-08 13:59 | 22.63656 | 56.54631 | 31974 ft | 486 kts | 242° |
| 2026-05-08 13:59 | 22.62096 | 56.51391 | 32334 ft | 485 kts | 242° |
| 2026-05-08 13:59 | 22.60536 | 56.48153 | 32663 ft | 485 kts | 242° |
| 2026-05-08 14:00 | 22.58994 | 56.44956 | 33075 ft | 483 kts | 242° |
| 2026-05-08 14:00 | 22.57444 | 56.41743 | 33516 ft | 481 kts | 242° |
| 2026-05-08 14:00 | 22.55889 | 56.38524 | 33735 ft | 483 kts | 242° |
| 2026-05-08 14:01 | 22.52758 | 56.32053 | 33784 ft | 484 kts | 242° |
| 2026-05-08 14:01 | 22.49648 | 56.25646 | 33770 ft | 480 kts | 242° |
| 2026-05-08 14:02 | 22.46565 | 56.19299 | 33775 ft | 477 kts | 242° |
| 2026-05-08 14:02 | 22.43473 | 56.12947 | 33782 ft | 476 kts | 242° |
| 2026-05-08 14:03 | 22.40387 | 56.06606 | 33775 ft | 477 kts | 242° |
| 2026-05-08 14:03 | 22.37284 | 56.00241 | 33778 ft | 478 kts | 242° |
| 2026-05-08 14:04 | 22.34219 | 55.94003 | 33772 ft | 480 kts | 242° |
| 2026-05-08 14:04 | 22.31085 | 55.87635 | 33775 ft | 480 kts | 242° |
| 2026-05-08 14:05 | 22.27936 | 55.81236 | 33771 ft | 481 kts | 242° |
| 2026-05-08 14:05 | 22.24795 | 55.74861 | 33772 ft | 482 kts | 242° |
| 2026-05-08 14:06 | 22.22178 | 55.69544 | 33768 ft | 482 kts | 242° |
| 2026-05-08 14:06 | 22.19026 | 55.63143 | 33766 ft | 482 kts | 242° |
| 2026-05-08 14:07 | 22.16626 | 55.56461 | 33767 ft | 482 kts | 258° |
| 2026-05-08 14:07 | 22.16130 | 55.49240 | 33757 ft | 483 kts | 273° |
| 2026-05-08 14:08 | 22.16759 | 55.42061 | 33769 ft | 484 kts | 274° |
| 2026-05-08 14:08 | 22.17438 | 55.34826 | 33766 ft | 484 kts | 274° |
| 2026-05-08 14:09 | 22.18068 | 55.27577 | 33763 ft | 484 kts | 274° |
| 2026-05-08 14:09 | 22.18659 | 55.20377 | 33767 ft | 484 kts | 273° |
| 2026-05-08 14:10 | 22.19242 | 55.13117 | 33760 ft | 484 kts | 273° |
| 2026-05-08 14:10 | 22.19817 | 55.05920 | 33756 ft | 484 kts | 273° |
| 2026-05-08 14:11 | 22.20385 | 54.98779 | 33769 ft | 483 kts | 273° |
| 2026-05-08 14:11 | 22.20962 | 54.91540 | 33762 ft | 484 kts | 273° |
| 2026-05-08 14:12 | 22.21534 | 54.84303 | 33756 ft | 483 kts | 273° |
| 2026-05-08 14:12 | 22.22100 | 54.77081 | 33775 ft | 483 kts | 273° |
| 2026-05-08 14:13 | 22.22661 | 54.69902 | 33767 ft | 482 kts | 273° |
| 2026-05-08 14:13 | 22.23220 | 54.62683 | 33768 ft | 481 kts | 273° |
| 2026-05-08 14:14 | 22.23770 | 54.55519 | 33766 ft | 480 kts | 273° |
| 2026-05-08 14:14 | 22.24323 | 54.48320 | 33766 ft | 480 kts | 273° |
| 2026-05-08 14:15 | 22.24874 | 54.41127 | 33767 ft | 480 kts | 272° |
| 2026-05-08 14:15 | 22.25419 | 54.33931 | 33769 ft | 480 kts | 272° |
| 2026-05-08 14:16 | 22.25958 | 54.26781 | 33777 ft | 480 kts | 272° |
| 2026-05-08 14:16 | 22.26499 | 54.19579 | 33771 ft | 480 kts | 272° |
| 2026-05-08 14:17 | 22.27031 | 54.12421 | 33769 ft | 480 kts | 272° |
| 2026-05-08 14:17 | 22.27565 | 54.05224 | 33774 ft | 480 kts | 272° |
| 2026-05-08 14:18 | 22.28085 | 53.98131 | 33783 ft | 481 kts | 272° |
| 2026-05-08 14:18 | 22.28610 | 53.90956 | 33774 ft | 480 kts | 272° |
| 2026-05-08 14:19 | 22.29132 | 53.83750 | 33774 ft | 480 kts | 272° |
| 2026-05-08 14:19 | 22.29652 | 53.76565 | 33772 ft | 479 kts | 272° |
| 2026-05-08 14:20 | 22.30168 | 53.69388 | 33779 ft | 479 kts | 272° |
| 2026-05-08 14:20 | 22.30678 | 53.62256 | 33778 ft | 478 kts | 272° |
| 2026-05-08 14:21 | 22.31188 | 53.55077 | 33772 ft | 478 kts | 272° |
| 2026-05-08 14:21 | 22.31691 | 53.47923 | 33778 ft | 477 kts | 272° |
| 2026-05-08 14:22 | 22.32188 | 53.40814 | 33779 ft | 477 kts | 272° |
| 2026-05-08 14:22 | 22.32687 | 53.33656 | 33784 ft | 477 kts | 272° |
| 2026-05-08 14:23 | 22.33179 | 53.26530 | 33785 ft | 478 kts | 272° |
| 2026-05-08 14:23 | 22.33673 | 53.19359 | 33780 ft | 478 kts | 272° |
| 2026-05-08 14:24 | 22.34162 | 53.12206 | 33795 ft | 479 kts | 272° |
| 2026-05-08 14:24 | 22.34649 | 53.05001 | 33785 ft | 478 kts | 272° |
| 2026-05-08 14:25 | 22.35121 | 52.97959 | 33784 ft | 478 kts | 272° |
| 2026-05-08 14:25 | 22.35603 | 52.90788 | 33784 ft | 477 kts | 272° |
| 2026-05-08 14:26 | 22.36076 | 52.83675 | 33786 ft | 476 kts | 272° |
| 2026-05-08 14:26 | 22.36547 | 52.76530 | 33788 ft | 476 kts | 272° |
| 2026-05-08 14:27 | 22.37015 | 52.69420 | 33783 ft | 476 kts | 272° |
| 2026-05-08 14:27 | 22.37480 | 52.62297 | 33793 ft | 475 kts | 272° |
| 2026-05-08 14:28 | 22.37942 | 52.55154 | 33791 ft | 475 kts | 272° |
| 2026-05-08 14:28 | 22.38398 | 52.48071 | 33788 ft | 475 kts | 271° |
| 2026-05-08 14:29 | 22.38852 | 52.40950 | 33793 ft | 475 kts | 271° |
| 2026-05-08 14:29 | 22.39305 | 52.33815 | 33795 ft | 475 kts | 271° |
| 2026-05-08 14:30 | 22.39755 | 52.26668 | 33797 ft | 476 kts | 271° |
| 2026-05-08 14:30 | 22.40199 | 52.19564 | 33794 ft | 476 kts | 271° |
| 2026-05-08 14:31 | 22.40645 | 52.12412 | 33799 ft | 476 kts | 271° |
| 2026-05-08 14:31 | 22.41193 | 52.05316 | 33795 ft | 477 kts | 272° |
| 2026-05-08 14:32 | 22.42101 | 51.94694 | 33794 ft | 477 kts | 272° |
| 2026-05-08 14:32 | 22.42689 | 51.87595 | 33795 ft | 476 kts | 272° |
| 2026-05-08 14:33 | 22.43272 | 51.80429 | 33799 ft | 476 kts | 272° |
| 2026-05-08 14:33 | 22.43840 | 51.73332 | 33796 ft | 476 kts | 272° |
| 2026-05-08 14:34 | 22.44408 | 51.66203 | 33795 ft | 476 kts | 272° |
| 2026-05-08 14:34 | 22.44976 | 51.59059 | 33796 ft | 476 kts | 272° |
| 2026-05-08 14:35 | 22.45542 | 51.51906 | 33799 ft | 476 kts | 272° |
| 2026-05-08 14:35 | 22.46100 | 51.44814 | 33799 ft | 476 kts | 272° |
| 2026-05-08 14:36 | 22.46659 | 51.37672 | 33799 ft | 476 kts | 272° |
| 2026-05-08 14:36 | 22.47212 | 51.30543 | 33804 ft | 476 kts | 271° |
| 2026-05-08 14:37 | 22.47763 | 51.23412 | 33799 ft | 476 kts | 272° |
| 2026-05-08 14:37 | 22.48311 | 51.16280 | 33800 ft | 475 kts | 271° |
| 2026-05-08 14:38 | 22.48854 | 51.09163 | 33794 ft | 475 kts | 271° |
| 2026-05-08 14:38 | 22.49393 | 51.02036 | 33803 ft | 475 kts | 271° |
| 2026-05-08 14:39 | 22.49928 | 50.94996 | 33806 ft | 476 kts | 271° |
| 2026-05-08 14:39 | 22.50462 | 50.87895 | 33809 ft | 476 kts | 271° |
| 2026-05-08 14:40 | 22.50995 | 50.80746 | 33809 ft | 476 kts | 271° |
| 2026-05-08 14:40 | 22.51526 | 50.73600 | 33809 ft | 476 kts | 271° |
| 2026-05-08 14:41 | 22.52051 | 50.66478 | 33806 ft | 476 kts | 271° |
| 2026-05-08 14:41 | 22.52575 | 50.59321 | 33812 ft | 476 kts | 271° |
| 2026-05-08 14:42 | 22.53092 | 50.52210 | 33805 ft | 476 kts | 271° |
| 2026-05-08 14:42 | 22.53609 | 50.45053 | 33803 ft | 476 kts | 271° |
| 2026-05-08 14:43 | 22.54122 | 50.37935 | 33820 ft | 475 kts | 271° |
| 2026-05-08 14:43 | 22.54633 | 50.30806 | 33810 ft | 475 kts | 271° |
| 2026-05-08 14:44 | 22.55141 | 50.23693 | 33807 ft | 474 kts | 271° |
| 2026-05-08 14:44 | 22.55641 | 50.16578 | 33814 ft | 474 kts | 270° |
| 2026-05-08 14:45 | 22.56135 | 50.09516 | 33815 ft | 473 kts | 271° |
| 2026-05-08 14:45 | 22.56633 | 50.02401 | 33813 ft | 473 kts | 270° |
| 2026-05-08 14:46 | 22.57761 | 49.95466 | 33813 ft | 479 kts | 287° |
| 2026-05-08 14:46 | 22.61006 | 49.89144 | 33820 ft | 494 kts | 304° |
| 2026-05-08 14:47 | 22.65393 | 49.83438 | 33822 ft | 493 kts | 306° |
| 2026-05-08 14:47 | 22.69798 | 49.77767 | 33810 ft | 490 kts | 305° |
| 2026-05-08 14:48 | 22.74121 | 49.72111 | 33813 ft | 490 kts | 304° |
| 2026-05-08 14:48 | 22.78461 | 49.66379 | 33813 ft | 490 kts | 304° |
| 2026-05-08 14:49 | 22.82752 | 49.60686 | 33819 ft | 490 kts | 304° |
| 2026-05-08 14:49 | 22.87076 | 49.54948 | 33814 ft | 491 kts | 304° |
| 2026-05-08 14:50 | 22.91387 | 49.49224 | 33818 ft | 491 kts | 303° |
| 2026-05-08 14:50 | 22.95698 | 49.43491 | 33818 ft | 492 kts | 303° |
| 2026-05-08 14:51 | 23.00033 | 49.37719 | 33816 ft | 492 kts | 303° |
| 2026-05-08 14:51 | 23.04365 | 49.31948 | 33817 ft | 492 kts | 303° |
| 2026-05-08 14:52 | 23.10862 | 49.23283 | 33814 ft | 493 kts | 303° |
| 2026-05-08 14:53 | 23.15161 | 49.17538 | 33815 ft | 493 kts | 303° |
| 2026-05-08 14:53 | 23.19484 | 49.11756 | 33831 ft | 492 kts | 303° |
| 2026-05-08 14:54 | 23.23796 | 49.05982 | 33835 ft | 491 kts | 303° |
| 2026-05-08 14:54 | 23.27389 | 49.01164 | 33824 ft | 491 kts | 303° |
| 2026-05-08 14:55 | 23.31629 | 48.95475 | 33813 ft | 489 kts | 303° |
| 2026-05-08 14:55 | 23.35888 | 48.89757 | 33824 ft | 488 kts | 303° |
| 2026-05-08 14:56 | 23.40175 | 48.83989 | 33826 ft | 488 kts | 303° |
| 2026-05-08 14:56 | 23.44425 | 48.78262 | 33833 ft | 487 kts | 303° |
| 2026-05-08 14:57 | 23.48688 | 48.72518 | 33834 ft | 487 kts | 303° |
| 2026-05-08 14:57 | 23.52918 | 48.66806 | 33841 ft | 487 kts | 303° |
| 2026-05-08 14:58 | 23.57186 | 48.61042 | 33846 ft | 487 kts | 302° |
| 2026-05-08 14:58 | 23.61420 | 48.55314 | 33836 ft | 487 kts | 302° |
| 2026-05-08 14:59 | 23.65666 | 48.49569 | 33844 ft | 486 kts | 302° |
| 2026-05-08 14:59 | 23.72036 | 48.40927 | 33863 ft | 486 kts | 302° |
| 2026-05-08 15:00 | 23.76260 | 48.35191 | 33855 ft | 486 kts | 302° |
| 2026-05-08 15:00 | 23.80496 | 48.29431 | 33862 ft | 486 kts | 302° |
| 2026-05-08 15:01 | 23.84737 | 48.23658 | 33864 ft | 486 kts | 302° |
| 2026-05-08 15:01 | 23.88980 | 48.17877 | 33875 ft | 486 kts | 302° |
| 2026-05-08 15:02 | 23.93206 | 48.12109 | 33872 ft | 486 kts | 302° |
| 2026-05-08 15:02 | 23.97398 | 48.06380 | 33879 ft | 486 kts | 302° |
| 2026-05-08 15:03 | 24.01615 | 48.00612 | 33884 ft | 485 kts | 301° |
| 2026-05-08 15:03 | 24.05790 | 47.94897 | 33892 ft | 485 kts | 301° |
| 2026-05-08 15:04 | 24.10006 | 47.89118 | 33889 ft | 485 kts | 301° |
| 2026-05-08 15:04 | 24.14218 | 47.83341 | 33888 ft | 485 kts | 301° |
| 2026-05-08 15:05 | 24.18391 | 47.77607 | 33928 ft | 485 kts | 301° |
| 2026-05-08 15:05 | 24.22610 | 47.71798 | 33933 ft | 485 kts | 301° |
| 2026-05-08 15:06 | 24.26801 | 47.66026 | 33932 ft | 486 kts | 301° |
| 2026-05-08 15:06 | 24.31008 | 47.60226 | 33933 ft | 486 kts | 301° |
| 2026-05-08 15:07 | 24.35227 | 47.54402 | 33939 ft | 487 kts | 301° |
| 2026-05-08 15:07 | 24.39428 | 47.48598 | 33930 ft | 488 kts | 301° |
| 2026-05-08 15:08 | 24.42946 | 47.43730 | 33927 ft | 488 kts | 301° |
| 2026-05-08 15:08 | 24.47881 | 47.36894 | 33945 ft | 488 kts | 301° |
| 2026-05-08 15:09 | 24.52084 | 47.31065 | 33942 ft | 488 kts | 301° |
| 2026-05-08 15:09 | 24.56313 | 47.25192 | 33944 ft | 488 kts | 301° |
| 2026-05-08 15:10 | 24.60499 | 47.19368 | 33953 ft | 488 kts | 301° |
| 2026-05-08 15:10 | 24.64712 | 47.13503 | 33944 ft | 488 kts | 301° |
| 2026-05-08 15:11 | 24.68929 | 47.07626 | 33970 ft | 488 kts | 300° |
| 2026-05-08 15:11 | 24.73111 | 47.01787 | 33969 ft | 488 kts | 300° |
| 2026-05-08 15:12 | 24.77276 | 46.95969 | 33977 ft | 488 kts | 300° |
| 2026-05-08 15:12 | 24.81481 | 46.90086 | 33988 ft | 488 kts | 300° |
| 2026-05-08 15:13 | 24.85662 | 46.84227 | 33999 ft | 488 kts | 300° |
| 2026-05-08 15:13 | 24.89839 | 46.78369 | 33994 ft | 488 kts | 300° |
| 2026-05-08 15:14 | 24.94035 | 46.72478 | 33992 ft | 488 kts | 300° |
| 2026-05-08 15:14 | 24.98300 | 46.66645 | 34010 ft | 492 kts | 304° |
| 2026-05-08 15:15 | 25.03251 | 46.61391 | 34003 ft | 498 kts | 309° |
| 2026-05-08 15:15 | 25.08399 | 46.56236 | 34003 ft | 499 kts | 309° |
| 2026-05-08 15:16 | 25.13516 | 46.51065 | 34016 ft | 499 kts | 309° |
| 2026-05-08 15:16 | 25.18628 | 46.45855 | 34003 ft | 502 kts | 310° |
| 2026-05-08 15:17 | 25.23819 | 46.40674 | 33995 ft | 502 kts | 309° |
| 2026-05-08 15:17 | 25.28873 | 46.35387 | 34012 ft | 500 kts | 309° |
| 2026-05-08 15:18 | 25.33932 | 46.30138 | 34020 ft | 501 kts | 309° |
| 2026-05-08 15:18 | 25.39048 | 46.24876 | 34009 ft | 501 kts | 309° |
| 2026-05-08 15:19 | 25.44146 | 46.19631 | 34014 ft | 501 kts | 309° |
| 2026-05-08 15:19 | 25.49242 | 46.14361 | 34009 ft | 501 kts | 308° |
| 2026-05-08 15:20 | 25.54320 | 46.09149 | 34005 ft | 500 kts | 308° |
| 2026-05-08 15:20 | 25.59423 | 46.03876 | 33995 ft | 500 kts | 308° |
| 2026-05-08 15:21 | 25.64470 | 45.98656 | 34013 ft | 500 kts | 308° |
| 2026-05-08 15:21 | 25.69532 | 45.93406 | 33977 ft | 502 kts | 308° |
| 2026-05-08 15:22 | 25.74650 | 45.88125 | 33980 ft | 500 kts | 307° |
| 2026-05-08 15:22 | 25.79703 | 45.82873 | 33980 ft | 500 kts | 307° |
| 2026-05-08 15:23 | 25.84787 | 45.77594 | 33989 ft | 499 kts | 307° |
| 2026-05-08 15:23 | 25.89857 | 45.72320 | 33975 ft | 498 kts | 307° |
| 2026-05-08 15:24 | 25.94887 | 45.67087 | 33998 ft | 498 kts | 307° |
| 2026-05-08 15:24 | 25.99958 | 45.61809 | 33987 ft | 498 kts | 307° |
| 2026-05-08 15:25 | 26.05006 | 45.56560 | 33995 ft | 501 kts | 308° |
| 2026-05-08 15:25 | 26.10062 | 45.51276 | 33989 ft | 498 kts | 307° |
| 2026-05-08 15:26 | 26.15118 | 45.45968 | 33986 ft | 497 kts | 307° |
| 2026-05-08 15:26 | 26.20114 | 45.40745 | 33979 ft | 495 kts | 307° |
| 2026-05-08 15:27 | 26.25107 | 45.35486 | 33991 ft | 491 kts | 307° |
| 2026-05-08 15:27 | 26.30051 | 45.30267 | 34000 ft | 485 kts | 306° |
| 2026-05-08 15:28 | 26.34952 | 45.25144 | 33980 ft | 483 kts | 306° |
| 2026-05-08 15:28 | 26.39847 | 45.20000 | 33985 ft | 482 kts | 306° |
| 2026-05-08 15:29 | 26.44696 | 45.14892 | 33983 ft | 482 kts | 306° |
| 2026-05-08 15:29 | 26.49563 | 45.09766 | 33997 ft | 480 kts | 306° |
| 2026-05-08 15:30 | 26.54429 | 45.04638 | 33979 ft | 478 kts | 306° |
| 2026-05-08 15:30 | 26.59222 | 44.99583 | 34014 ft | 481 kts | 307° |
| 2026-05-08 15:31 | 26.64076 | 44.94459 | 34007 ft | 483 kts | 307° |
| 2026-05-08 15:31 | 26.68978 | 44.89280 | 34006 ft | 485 kts | 307° |
| 2026-05-08 15:32 | 26.73889 | 44.84089 | 34015 ft | 486 kts | 307° |
| 2026-05-08 15:32 | 26.78777 | 44.78915 | 34006 ft | 486 kts | 307° |
| 2026-05-08 15:33 | 26.83703 | 44.73671 | 34013 ft | 487 kts | 307° |
| 2026-05-08 15:33 | 26.88617 | 44.68413 | 34028 ft | 488 kts | 306° |
| 2026-05-08 15:34 | 26.93523 | 44.63129 | 34024 ft | 490 kts | 308° |
| 2026-05-08 15:34 | 26.98487 | 44.57930 | 34035 ft | 484 kts | 307° |
| 2026-05-08 15:35 | 27.03263 | 44.52681 | 34044 ft | 489 kts | 308° |
| 2026-05-08 15:35 | 27.08281 | 44.47429 | 34039 ft | 494 kts | 308° |
| 2026-05-08 15:36 | 27.12432 | 44.43010 | 34037 ft | 497 kts | 308° |
| 2026-05-08 15:36 | 27.18292 | 44.36760 | 34041 ft | 500 kts | 309° |
| 2026-05-08 15:37 | 27.23309 | 44.31325 | 34005 ft | 501 kts | 308° |
| 2026-05-08 15:37 | 27.28327 | 44.25868 | 34044 ft | 500 kts | 308° |
| 2026-05-08 15:38 | 27.33365 | 44.20519 | 34047 ft | 504 kts | 308° |
| 2026-05-08 15:38 | 27.38526 | 44.15015 | 34023 ft | 512 kts | 309° |
| 2026-05-08 15:39 | 27.43677 | 44.09460 | 33987 ft | 513 kts | 308° |
| 2026-05-08 15:39 | 27.48734 | 44.03860 | 33979 ft | 512 kts | 308° |
| 2026-05-08 15:40 | 27.53843 | 43.98368 | 34006 ft | 513 kts | 308° |
| 2026-05-08 15:40 | 27.58967 | 43.92840 | 33987 ft | 513 kts | 308° |
| 2026-05-08 15:41 | 27.64143 | 43.87245 | 33991 ft | 514 kts | 308° |
| 2026-05-08 15:41 | 27.68448 | 43.82592 | 33990 ft | 516 kts | 308° |
| 2026-05-08 15:42 | 27.73556 | 43.76989 | 33971 ft | 510 kts | 308° |
| 2026-05-08 15:42 | 27.78672 | 43.71442 | 33979 ft | 511 kts | 308° |
| 2026-05-08 15:43 | 27.83831 | 43.65887 | 33964 ft | 509 kts | 308° |
| 2026-05-08 15:43 | 27.88735 | 43.60215 | 33984 ft | 507 kts | 304° |
| 2026-05-08 15:44 | 27.93572 | 43.54321 | 33986 ft | 513 kts | 304° |
| 2026-05-08 15:44 | 27.98446 | 43.48344 | 33988 ft | 517 kts | 304° |
| 2026-05-08 15:45 | 28.03378 | 43.42427 | 34022 ft | 515 kts | 305° |
| 2026-05-08 15:45 | 28.08206 | 43.36516 | 33983 ft | 516 kts | 303° |
| 2026-05-08 15:46 | 28.13143 | 43.30449 | 34186 ft | 525 kts | 304° |
| 2026-05-08 15:46 | 28.15638 | 43.27465 | 34744 ft | 517 kts | 304° |
| 2026-05-08 15:46 | 28.18095 | 43.24537 | 35439 ft | 507 kts | 303° |
| 2026-05-08 15:47 | 28.20502 | 43.21653 | 35956 ft | 501 kts | 303° |
| 2026-05-08 15:47 | 28.22896 | 43.18759 | 35977 ft | 504 kts | 302° |
| 2026-05-08 15:47 | 28.27665 | 43.12948 | 35982 ft | 501 kts | 302° |
| 2026-05-08 15:48 | 28.34743 | 43.04317 | 35991 ft | 496 kts | 302° |
| 2026-05-08 15:49 | 28.39365 | 42.98676 | 36006 ft | 496 kts | 303° |
| 2026-05-08 15:49 | 28.44072 | 42.92929 | 35998 ft | 496 kts | 303° |
| 2026-05-08 15:50 | 28.48757 | 42.87189 | 36012 ft | 498 kts | 303° |
| 2026-05-08 15:50 | 28.53494 | 42.81392 | 36003 ft | 498 kts | 303° |
| 2026-05-08 15:51 | 28.58198 | 42.75622 | 36012 ft | 499 kts | 303° |
| 2026-05-08 15:51 | 28.62915 | 42.69829 | 36009 ft | 498 kts | 303° |
| 2026-05-08 15:52 | 28.67605 | 42.64057 | 36019 ft | 498 kts | 302° |
| 2026-05-08 15:52 | 28.72310 | 42.58244 | 36034 ft | 497 kts | 304° |
| 2026-05-08 15:53 | 28.76998 | 42.52445 | 36023 ft | 496 kts | 304° |
| 2026-05-08 15:53 | 28.81667 | 42.46663 | 36021 ft | 494 kts | 304° |
| 2026-05-08 15:54 | 28.86291 | 42.40925 | 36026 ft | 493 kts | 304° |
| 2026-05-08 15:54 | 28.90932 | 42.35156 | 36026 ft | 491 kts | 305° |
| 2026-05-08 15:55 | 28.95544 | 42.29421 | 36018 ft | 488 kts | 305° |
| 2026-05-08 15:55 | 29.02388 | 42.20890 | 36040 ft | 485 kts | 305° |
| 2026-05-08 15:56 | 29.06931 | 42.15220 | 36031 ft | 484 kts | 306° |
| 2026-05-08 15:56 | 29.11477 | 42.09548 | 36055 ft | 483 kts | 306° |
| 2026-05-08 15:57 | 29.16010 | 42.03878 | 36041 ft | 482 kts | 306° |
| 2026-05-08 15:57 | 29.20479 | 41.98285 | 36067 ft | 482 kts | 307° |
| 2026-05-08 15:58 | 29.24985 | 41.92637 | 36056 ft | 481 kts | 307° |
| 2026-05-08 15:58 | 29.29496 | 41.86971 | 36059 ft | 480 kts | 307° |
| 2026-05-08 15:59 | 29.34002 | 41.81303 | 36054 ft | 480 kts | 307° |
| 2026-05-08 15:59 | 29.38471 | 41.75675 | 36072 ft | 479 kts | 308° |
| 2026-05-08 16:00 | 29.42963 | 41.70014 | 36055 ft | 478 kts | 308° |
| 2026-05-08 16:00 | 29.47441 | 41.64356 | 36063 ft | 478 kts | 308° |
| 2026-05-08 16:01 | 29.51897 | 41.58722 | 36069 ft | 477 kts | 308° |
| 2026-05-08 16:01 | 29.56361 | 41.53068 | 36077 ft | 477 kts | 308° |
| 2026-05-08 16:02 | 29.60793 | 41.47443 | 36070 ft | 476 kts | 308° |
| 2026-05-08 16:02 | 29.65258 | 41.41775 | 36074 ft | 475 kts | 308° |
| 2026-05-08 16:03 | 29.69660 | 41.36176 | 36078 ft | 474 kts | 308° |
| 2026-05-08 16:03 | 29.74125 | 41.30565 | 36079 ft | 475 kts | 312° |
| 2026-05-08 16:04 | 29.79028 | 41.25432 | 36082 ft | 476 kts | 315° |
| 2026-05-08 16:04 | 29.84005 | 41.20405 | 36080 ft | 476 kts | 315° |
| 2026-05-08 16:05 | 29.88961 | 41.15364 | 36077 ft | 475 kts | 315° |
| 2026-05-08 16:05 | 29.93895 | 41.10296 | 36089 ft | 474 kts | 315° |
| 2026-05-08 16:06 | 29.98803 | 41.05238 | 36075 ft | 473 kts | 315° |
| 2026-05-08 16:06 | 30.03678 | 41.00216 | 36074 ft | 471 kts | 315° |
| 2026-05-08 16:07 | 30.08490 | 40.95246 | 36086 ft | 470 kts | 315° |
| 2026-05-08 16:07 | 30.13346 | 40.90225 | 36092 ft | 469 kts | 315° |
| 2026-05-08 16:08 | 30.18216 | 40.85183 | 36077 ft | 468 kts | 315° |
| 2026-05-08 16:08 | 30.23036 | 40.80188 | 36082 ft | 466 kts | 315° |
| 2026-05-08 16:09 | 30.27047 | 40.76025 | 36081 ft | 465 kts | 315° |
| 2026-05-08 16:09 | 30.32672 | 40.70180 | 36084 ft | 465 kts | 315° |
| 2026-05-08 16:10 | 30.37489 | 40.65164 | 36089 ft | 465 kts | 315° |
| 2026-05-08 16:10 | 30.42307 | 40.60186 | 36108 ft | 466 kts | 316° |
| 2026-05-08 16:11 | 30.47180 | 40.55213 | 36094 ft | 467 kts | 316° |
| 2026-05-08 16:11 | 30.52075 | 40.50212 | 36087 ft | 467 kts | 316° |
| 2026-05-08 16:12 | 30.56947 | 40.45219 | 36097 ft | 466 kts | 316° |
| 2026-05-08 16:12 | 30.61771 | 40.40262 | 36091 ft | 466 kts | 316° |
| 2026-05-08 16:13 | 30.66614 | 40.35274 | 36093 ft | 465 kts | 316° |
| 2026-05-08 16:13 | 30.71451 | 40.30289 | 36093 ft | 464 kts | 316° |
| 2026-05-08 16:14 | 30.76286 | 40.25299 | 36096 ft | 464 kts | 316° |
| 2026-05-08 16:14 | 30.81082 | 40.20345 | 36102 ft | 463 kts | 316° |
| 2026-05-08 16:15 | 30.85899 | 40.15360 | 36089 ft | 461 kts | 316° |
| 2026-05-08 16:15 | 30.90662 | 40.10423 | 36094 ft | 460 kts | 316° |
| 2026-05-08 16:16 | 30.95441 | 40.05465 | 36097 ft | 459 kts | 316° |
| 2026-05-08 16:16 | 31.00208 | 40.00508 | 36097 ft | 458 kts | 317° |
| 2026-05-08 16:17 | 31.04124 | 39.96433 | 36092 ft | 457 kts | 317° |
| 2026-05-08 16:17 | 31.09634 | 39.90692 | 36091 ft | 456 kts | 317° |
| 2026-05-08 16:18 | 31.14367 | 39.85752 | 36090 ft | 456 kts | 317° |
| 2026-05-08 16:18 | 31.19103 | 39.80803 | 36090 ft | 456 kts | 317° |
| 2026-05-08 16:19 | 31.23820 | 39.75866 | 36091 ft | 454 kts | 317° |
| 2026-05-08 16:19 | 31.28501 | 39.70961 | 36085 ft | 453 kts | 317° |
| 2026-05-08 16:20 | 31.33194 | 39.66034 | 36086 ft | 451 kts | 317° |
| 2026-05-08 16:20 | 31.37830 | 39.61160 | 36088 ft | 450 kts | 317° |
| 2026-05-08 16:21 | 31.42497 | 39.56249 | 36104 ft | 449 kts | 317° |
| 2026-05-08 16:21 | 31.47117 | 39.51372 | 36078 ft | 448 kts | 317° |
| 2026-05-08 16:22 | 31.50962 | 39.47303 | 36091 ft | 447 kts | 317° |
| 2026-05-08 16:22 | 31.56332 | 39.41607 | 36088 ft | 446 kts | 317° |
| 2026-05-08 16:23 | 31.60936 | 39.36718 | 36089 ft | 445 kts | 317° |
| 2026-05-08 16:23 | 31.65528 | 39.31835 | 36086 ft | 445 kts | 318° |
| 2026-05-08 16:24 | 31.70111 | 39.26955 | 36089 ft | 444 kts | 317° |
| 2026-05-08 16:24 | 31.74652 | 39.22111 | 36086 ft | 443 kts | 317° |
| 2026-05-08 16:25 | 31.79340 | 39.17414 | 36103 ft | 442 kts | 323° |
| 2026-05-08 16:25 | 31.84569 | 39.13617 | 36081 ft | 442 kts | 332° |
| 2026-05-08 16:26 | 31.89161 | 39.10937 | 36096 ft | 441 kts | 333° |
| 2026-05-08 16:26 | 31.94634 | 39.07756 | 36080 ft | 440 kts | 332° |
| 2026-05-08 16:27 | 32.00095 | 39.04529 | 36085 ft | 438 kts | 332° |
| 2026-05-08 16:27 | 32.05538 | 39.01309 | 36082 ft | 437 kts | 332° |
| 2026-05-08 16:28 | 32.10914 | 38.98145 | 36092 ft | 437 kts | 332° |
| 2026-05-08 16:28 | 32.16353 | 38.94943 | 36078 ft | 438 kts | 332° |
| 2026-05-08 16:29 | 32.21780 | 38.91739 | 36073 ft | 438 kts | 332° |
| 2026-05-08 16:29 | 32.27235 | 38.88511 | 36073 ft | 438 kts | 332° |
| 2026-05-08 16:30 | 32.32675 | 38.85291 | 36070 ft | 437 kts | 332° |
| 2026-05-08 16:30 | 32.38110 | 38.82070 | 36069 ft | 436 kts | 332° |
| 2026-05-08 16:31 | 32.43532 | 38.78848 | 36062 ft | 436 kts | 332° |
| 2026-05-08 16:31 | 32.48956 | 38.75624 | 36054 ft | 436 kts | 332° |
| 2026-05-08 16:32 | 32.54370 | 38.72400 | 36050 ft | 435 kts | 332° |
| 2026-05-08 16:32 | 32.59783 | 38.69175 | 36050 ft | 435 kts | 332° |
| 2026-05-08 16:33 | 32.65201 | 38.65946 | 36078 ft | 435 kts | 332° |
| 2026-05-08 16:33 | 32.70606 | 38.62720 | 36045 ft | 435 kts | 332° |
| 2026-05-08 16:34 | 32.76001 | 38.59496 | 36038 ft | 434 kts | 332° |
| 2026-05-08 16:34 | 32.81371 | 38.56281 | 36041 ft | 434 kts | 332° |
| 2026-05-08 16:35 | 32.86782 | 38.53038 | 36040 ft | 433 kts | 332° |
| 2026-05-08 16:35 | 32.92147 | 38.49819 | 36053 ft | 433 kts | 332° |
| 2026-05-08 16:36 | 32.97534 | 38.46583 | 36036 ft | 434 kts | 332° |
| 2026-05-08 16:36 | 33.02894 | 38.43356 | 36030 ft | 433 kts | 332° |
| 2026-05-08 16:37 | 33.08284 | 38.40108 | 36037 ft | 433 kts | 332° |
| 2026-05-08 16:37 | 33.13639 | 38.36879 | 36018 ft | 433 kts | 332° |
| 2026-05-08 16:38 | 33.19003 | 38.33609 | 36039 ft | 433 kts | 331° |
| 2026-05-08 16:38 | 33.24365 | 38.30331 | 36040 ft | 433 kts | 332° |
| 2026-05-08 16:39 | 33.29727 | 38.27060 | 36017 ft | 433 kts | 332° |
| 2026-05-08 16:39 | 33.35075 | 38.23790 | 36024 ft | 433 kts | 331° |
| 2026-05-08 16:40 | 33.40452 | 38.20497 | 36016 ft | 433 kts | 331° |
| 2026-05-08 16:40 | 33.45784 | 38.17228 | 36019 ft | 432 kts | 332° |
| 2026-05-08 16:41 | 33.51142 | 38.13971 | 36026 ft | 431 kts | 332° |
| 2026-05-08 16:42 | 33.59153 | 38.09119 | 36025 ft | 430 kts | 332° |
| 2026-05-08 16:42 | 33.64481 | 38.05877 | 36022 ft | 429 kts | 332° |
| 2026-05-08 16:43 | 33.69799 | 38.02636 | 36023 ft | 428 kts | 332° |
| 2026-05-08 16:43 | 33.75033 | 37.99442 | 36031 ft | 428 kts | 332° |
| 2026-05-08 16:44 | 33.80346 | 37.96196 | 36026 ft | 428 kts | 332° |
| 2026-05-08 16:44 | 33.85371 | 37.92510 | 36027 ft | 424 kts | 320° |
| 2026-05-08 16:45 | 33.89543 | 37.87478 | 36028 ft | 425 kts | 310° |
| 2026-05-08 16:45 | 33.92803 | 37.81528 | 36030 ft | 426 kts | 304° |
| 2026-05-08 16:46 | 33.95903 | 37.75456 | 36036 ft | 425 kts | 304° |
| 2026-05-08 16:46 | 33.98998 | 37.69448 | 36041 ft | 424 kts | 305° |
| 2026-05-08 16:47 | 34.02690 | 37.64143 | 36050 ft | 415 kts | 326° |
| 2026-05-08 16:47 | 34.07886 | 37.61093 | 36046 ft | 419 kts | 343° |
| 2026-05-08 16:48 | 34.13631 | 37.59828 | 36043 ft | 420 kts | 347° |
| 2026-05-08 16:48 | 34.19434 | 37.58736 | 36050 ft | 422 kts | 347° |
| 2026-05-08 16:49 | 34.25212 | 37.57608 | 36061 ft | 423 kts | 347° |
| 2026-05-08 16:49 | 34.31023 | 37.56433 | 36054 ft | 425 kts | 347° |
| 2026-05-08 16:50 | 34.36878 | 37.55232 | 36052 ft | 426 kts | 347° |
| 2026-05-08 16:50 | 34.42743 | 37.54022 | 36047 ft | 427 kts | 347° |
| 2026-05-08 16:51 | 34.48584 | 37.52817 | 36051 ft | 427 kts | 347° |
| 2026-05-08 16:51 | 34.54445 | 37.51605 | 36062 ft | 425 kts | 347° |
| 2026-05-08 16:52 | 34.60268 | 37.50403 | 36061 ft | 423 kts | 347° |
| 2026-05-08 16:52 | 34.66066 | 37.49202 | 36059 ft | 421 kts | 347° |
| 2026-05-08 16:53 | 34.74694 | 37.47411 | 36076 ft | 420 kts | 347° |
| 2026-05-08 16:53 | 34.80426 | 37.46223 | 36076 ft | 419 kts | 347° |
| 2026-05-08 16:54 | 34.86172 | 37.45025 | 36081 ft | 418 kts | 347° |
| 2026-05-08 16:54 | 34.91917 | 37.43827 | 36075 ft | 418 kts | 347° |
| 2026-05-08 16:55 | 34.97659 | 37.42629 | 36089 ft | 418 kts | 347° |
| 2026-05-08 16:55 | 35.03392 | 37.41431 | 36079 ft | 418 kts | 347° |
| 2026-05-08 16:56 | 35.09098 | 37.40238 | 36091 ft | 418 kts | 347° |
| 2026-05-08 16:56 | 35.14852 | 37.39031 | 36090 ft | 418 kts | 347° |
| 2026-05-08 16:57 | 35.20593 | 37.37826 | 36092 ft | 418 kts | 347° |
| 2026-05-08 16:57 | 35.26339 | 37.36618 | 36089 ft | 419 kts | 347° |
| 2026-05-08 16:58 | 35.32057 | 37.35415 | 36093 ft | 419 kts | 347° |
| 2026-05-08 16:58 | 35.37823 | 37.34200 | 36096 ft | 419 kts | 347° |
| 2026-05-08 16:59 | 35.43590 | 37.32980 | 36099 ft | 420 kts | 347° |
| 2026-05-08 16:59 | 35.49323 | 37.31768 | 36096 ft | 420 kts | 347° |
| 2026-05-08 17:00 | 35.55099 | 37.30546 | 36100 ft | 420 kts | 347° |
| 2026-05-08 17:00 | 35.60861 | 37.29325 | 36118 ft | 420 kts | 347° |
| 2026-05-08 17:01 | 35.66591 | 37.28110 | 36105 ft | 420 kts | 347° |
| 2026-05-08 17:01 | 35.72362 | 37.26883 | 36100 ft | 420 kts | 347° |
| 2026-05-08 17:02 | 35.78131 | 37.25654 | 36104 ft | 420 kts | 347° |
| 2026-05-08 17:02 | 35.83864 | 37.24431 | 36118 ft | 420 kts | 347° |
| 2026-05-08 17:03 | 35.89627 | 37.23200 | 36110 ft | 420 kts | 346° |
| 2026-05-08 17:03 | 35.95361 | 37.21972 | 36107 ft | 419 kts | 346° |
| 2026-05-08 17:04 | 36.01172 | 37.21189 | 36125 ft | 423 kts | 354° |
| 2026-05-08 17:04 | 36.07078 | 37.21117 | 36133 ft | 423 kts | 354° |
| 2026-05-08 17:05 | 36.12938 | 37.20989 | 36131 ft | 420 kts | 351° |
| 2026-05-08 17:05 | 36.18531 | 37.19282 | 36131 ft | 412 kts | 336° |
| 2026-05-08 17:06 | 36.23508 | 37.15984 | 36137 ft | 410 kts | 323° |
| 2026-05-08 17:06 | 36.26005 | 37.13637 | 36148 ft | 411 kts | 323° |
| 2026-05-08 17:07 | 36.29629 | 37.10188 | 36136 ft | 412 kts | 323° |
| 2026-05-08 17:07 | 36.34189 | 37.05921 | 36124 ft | 413 kts | 323° |
| 2026-05-08 17:08 | 36.38817 | 37.01627 | 36123 ft | 414 kts | 323° |
| 2026-05-08 17:08 | 36.43351 | 36.97370 | 36113 ft | 414 kts | 323° |
| 2026-05-08 17:09 | 36.47938 | 36.93032 | 36103 ft | 414 kts | 323° |
| 2026-05-08 17:09 | 36.52525 | 36.88688 | 36112 ft | 414 kts | 323° |
| 2026-05-08 17:10 | 36.57092 | 36.84364 | 36106 ft | 413 kts | 323° |
| 2026-05-08 17:10 | 36.61671 | 36.80021 | 36116 ft | 413 kts | 323° |
| 2026-05-08 17:11 | 36.66238 | 36.75686 | 36118 ft | 412 kts | 323° |
| 2026-05-08 17:11 | 36.70029 | 36.72080 | 36104 ft | 411 kts | 322° |
| 2026-05-08 17:12 | 36.74575 | 36.67750 | 36124 ft | 411 kts | 323° |
| 2026-05-08 17:12 | 36.79123 | 36.63413 | 36106 ft | 411 kts | 322° |
| 2026-05-08 17:13 | 36.83636 | 36.59045 | 36115 ft | 410 kts | 322° |
| 2026-05-08 17:13 | 36.88127 | 36.54680 | 36137 ft | 410 kts | 322° |
| 2026-05-08 17:14 | 36.92643 | 36.50294 | 36127 ft | 412 kts | 322° |
| 2026-05-08 17:14 | 36.97134 | 36.45891 | 36113 ft | 406 kts | 322° |
| 2026-05-08 17:15 | 37.01609 | 36.41551 | 36103 ft | 407 kts | 322° |
| 2026-05-08 17:15 | 37.06073 | 36.37243 | 36133 ft | 407 kts | 322° |
| 2026-05-08 17:16 | 37.10583 | 36.32870 | 36127 ft | 410 kts | 322° |
| 2026-05-08 17:16 | 37.15083 | 36.28487 | 36116 ft | 412 kts | 322° |
| 2026-05-08 17:17 | 37.19628 | 36.24049 | 36096 ft | 413 kts | 322° |
| 2026-05-08 17:17 | 37.24161 | 36.19619 | 36110 ft | 413 kts | 322° |
| 2026-05-08 17:18 | 37.28672 | 36.15203 | 36108 ft | 413 kts | 322° |
| 2026-05-08 17:18 | 37.33209 | 36.10754 | 36115 ft | 413 kts | 321° |
| 2026-05-08 17:19 | 37.37712 | 36.06332 | 36117 ft | 412 kts | 321° |
| 2026-05-08 17:19 | 37.42234 | 36.01883 | 36111 ft | 412 kts | 321° |
| 2026-05-08 17:20 | 37.46715 | 35.97469 | 36139 ft | 412 kts | 321° |
| 2026-05-08 17:20 | 37.51205 | 35.93040 | 36119 ft | 412 kts | 321° |
| 2026-05-08 17:21 | 37.55730 | 35.88566 | 36121 ft | 412 kts | 321° |
| 2026-05-08 17:21 | 37.60215 | 35.84127 | 36134 ft | 411 kts | 321° |
| 2026-05-08 17:22 | 37.64715 | 35.79665 | 36136 ft | 411 kts | 321° |
| 2026-05-08 17:22 | 37.69218 | 35.75198 | 36124 ft | 410 kts | 321° |
| 2026-05-08 17:23 | 37.73692 | 35.70744 | 36163 ft | 410 kts | 321° |
| 2026-05-08 17:23 | 37.78176 | 35.66279 | 36140 ft | 413 kts | 321° |
| 2026-05-08 17:24 | 37.82690 | 35.61777 | 36163 ft | 413 kts | 322° |
| 2026-05-08 17:24 | 37.87218 | 35.57252 | 36167 ft | 415 kts | 321° |
| 2026-05-08 17:25 | 37.91755 | 35.52707 | 36174 ft | 416 kts | 321° |
| 2026-05-08 17:25 | 37.96282 | 35.48168 | 36177 ft | 416 kts | 321° |
| 2026-05-08 17:26 | 38.00822 | 35.43611 | 36200 ft | 417 kts | 321° |
| 2026-05-08 17:26 | 38.05353 | 35.39052 | 36211 ft | 418 kts | 321° |
| 2026-05-08 17:27 | 38.09930 | 35.34440 | 36193 ft | 419 kts | 321° |
| 2026-05-08 17:27 | 38.14480 | 35.29849 | 36192 ft | 419 kts | 321° |
| 2026-05-08 17:28 | 38.19040 | 35.25237 | 36189 ft | 418 kts | 321° |
| 2026-05-08 17:28 | 38.23595 | 35.20627 | 36191 ft | 418 kts | 320° |
| 2026-05-08 17:29 | 38.28119 | 35.16039 | 36193 ft | 417 kts | 320° |
| 2026-05-08 17:29 | 38.32662 | 35.11423 | 36206 ft | 417 kts | 320° |
| 2026-05-08 17:30 | 38.37208 | 35.06799 | 36033 ft | 419 kts | 320° |
| 2026-05-08 17:30 | 38.39509 | 35.04466 | 35874 ft | 417 kts | 320° |
| 2026-05-08 17:30 | 38.41768 | 35.02170 | 36017 ft | 415 kts | 320° |
| 2026-05-08 17:31 | 38.46216 | 34.97637 | 36140 ft | 418 kts | 320° |
| 2026-05-08 17:31 | 38.50784 | 34.92972 | 36198 ft | 423 kts | 320° |
| 2026-05-08 17:32 | 38.55426 | 34.88228 | 36214 ft | 427 kts | 320° |
| 2026-05-08 17:32 | 38.60013 | 34.83532 | 36207 ft | 420 kts | 320° |
| 2026-05-08 17:33 | 38.64554 | 34.78880 | 36222 ft | 417 kts | 320° |
| 2026-05-08 17:33 | 38.69093 | 34.74218 | 36215 ft | 417 kts | 320° |
| 2026-05-08 17:34 | 38.73634 | 34.69544 | 36209 ft | 419 kts | 320° |
| 2026-05-08 17:34 | 38.78150 | 34.64891 | 36210 ft | 419 kts | 320° |
| 2026-05-08 17:35 | 38.82714 | 34.60182 | 36220 ft | 420 kts | 320° |
| 2026-05-08 17:35 | 38.87279 | 34.55459 | 36216 ft | 422 kts | 320° |
| 2026-05-08 17:36 | 38.91856 | 34.50716 | 36217 ft | 423 kts | 320° |
| 2026-05-08 17:36 | 38.96421 | 34.45979 | 36206 ft | 424 kts | 319° |
| 2026-05-08 17:37 | 39.01020 | 34.41199 | 36214 ft | 425 kts | 319° |
| 2026-05-08 17:37 | 39.05594 | 34.36437 | 36211 ft | 425 kts | 319° |
| 2026-05-08 17:38 | 39.10200 | 34.31633 | 36209 ft | 426 kts | 319° |
| 2026-05-08 17:38 | 39.14809 | 34.26820 | 36213 ft | 426 kts | 319° |
| 2026-05-08 17:39 | 39.19403 | 34.22034 | 36205 ft | 427 kts | 319° |
| 2026-05-08 17:39 | 39.24030 | 34.17208 | 36220 ft | 427 kts | 319° |
| 2026-05-08 17:40 | 39.28654 | 34.12375 | 36206 ft | 427 kts | 319° |
| 2026-05-08 17:40 | 39.33245 | 34.07566 | 36208 ft | 427 kts | 319° |
| 2026-05-08 17:41 | 39.37866 | 34.02716 | 36207 ft | 426 kts | 319° |
| 2026-05-08 17:41 | 39.42404 | 33.97948 | 36205 ft | 426 kts | 319° |
| 2026-05-08 17:42 | 39.47014 | 33.93096 | 36193 ft | 426 kts | 319° |
| 2026-05-08 17:42 | 39.51620 | 33.88237 | 36196 ft | 427 kts | 319° |
| 2026-05-08 17:43 | 39.56210 | 33.83382 | 36190 ft | 428 kts | 319° |
| 2026-05-08 17:43 | 39.60833 | 33.78491 | 36191 ft | 428 kts | 319° |
| 2026-05-08 17:44 | 39.65430 | 33.73610 | 36195 ft | 428 kts | 319° |
| 2026-05-08 17:44 | 39.70041 | 33.68713 | 36196 ft | 429 kts | 319° |
| 2026-05-08 17:45 | 39.74681 | 33.63773 | 36200 ft | 430 kts | 318° |
| 2026-05-08 17:45 | 39.79294 | 33.58853 | 36205 ft | 432 kts | 318° |
| 2026-05-08 17:46 | 39.83950 | 33.53877 | 36194 ft | 433 kts | 318° |
| 2026-05-08 17:46 | 39.88623 | 33.48877 | 36190 ft | 433 kts | 318° |
| 2026-05-08 17:47 | 39.93255 | 33.43919 | 36194 ft | 433 kts | 318° |
| 2026-05-08 17:47 | 39.97133 | 33.39751 | 36190 ft | 434 kts | 318° |
| 2026-05-08 17:48 | 40.02563 | 33.33906 | 36199 ft | 435 kts | 318° |
| 2026-05-08 17:48 | 40.07234 | 33.28873 | 36194 ft | 435 kts | 318° |
| 2026-05-08 17:49 | 40.11908 | 33.23822 | 36196 ft | 436 kts | 318° |
| 2026-05-08 17:49 | 40.16549 | 33.18802 | 36185 ft | 435 kts | 318° |
| 2026-05-08 17:50 | 40.21155 | 33.13649 | 36180 ft | 433 kts | 311° |
| 2026-05-08 17:50 | 40.24688 | 33.07306 | 36188 ft | 432 kts | 300° |
| 2026-05-08 17:51 | 40.27029 | 33.00110 | 36192 ft | 433 kts | 289° |
| 2026-05-08 17:51 | 40.28809 | 32.93037 | 36197 ft | 435 kts | 289° |
| 2026-05-08 17:52 | 40.30701 | 32.85501 | 36201 ft | 435 kts | 289° |
| 2026-05-08 17:53 | 40.33585 | 32.74242 | 36203 ft | 437 kts | 289° |
| 2026-05-08 17:53 | 40.35529 | 32.66677 | 36207 ft | 437 kts | 289° |
| 2026-05-08 17:54 | 40.37453 | 32.59159 | 36211 ft | 437 kts | 289° |
| 2026-05-08 17:54 | 40.39361 | 32.51675 | 36202 ft | 437 kts | 289° |
| 2026-05-08 17:55 | 40.41289 | 32.44092 | 36206 ft | 437 kts | 289° |
| 2026-05-08 17:55 | 40.43199 | 32.36559 | 36208 ft | 437 kts | 289° |
| 2026-05-08 17:56 | 40.45112 | 32.28992 | 36218 ft | 436 kts | 288° |
| 2026-05-08 17:56 | 40.47022 | 32.21412 | 36211 ft | 436 kts | 288° |
| 2026-05-08 17:57 | 40.48751 | 32.15197 | 36213 ft | 435 kts | 291° |
| 2026-05-08 17:57 | 40.51337 | 32.06564 | 36213 ft | 436 kts | 291° |
| 2026-05-08 17:58 | 40.53181 | 32.00372 | 36212 ft | 437 kts | 291° |
| 2026-05-08 17:58 | 40.55358 | 31.92993 | 36219 ft | 437 kts | 291° |
| 2026-05-08 17:59 | 40.57537 | 31.85567 | 36201 ft | 438 kts | 291° |
| 2026-05-08 17:59 | 40.59621 | 31.78017 | 36207 ft | 441 kts | 288° |
| 2026-05-08 18:00 | 40.61485 | 31.70297 | 36199 ft | 442 kts | 287° |
| 2026-05-08 18:00 | 40.64283 | 31.58738 | 36196 ft | 442 kts | 287° |
| 2026-05-08 18:01 | 40.66176 | 31.51014 | 36186 ft | 442 kts | 288° |
| 2026-05-08 18:01 | 40.68055 | 31.43346 | 36185 ft | 441 kts | 288° |
| 2026-05-08 18:02 | 40.69936 | 31.35648 | 36176 ft | 441 kts | 287° |
| 2026-05-08 18:02 | 40.71811 | 31.27940 | 36175 ft | 441 kts | 287° |
| 2026-05-08 18:03 | 40.73687 | 31.20223 | 36169 ft | 441 kts | 287° |
| 2026-05-08 18:03 | 40.75563 | 31.12523 | 36168 ft | 441 kts | 287° |
| 2026-05-08 18:04 | 40.77426 | 31.04837 | 36151 ft | 443 kts | 287° |
| 2026-05-08 18:04 | 40.79278 | 30.97172 | 36156 ft | 443 kts | 287° |
| 2026-05-08 18:05 | 40.81147 | 30.89405 | 36149 ft | 444 kts | 287° |
| 2026-05-08 18:05 | 40.83005 | 30.81660 | 36146 ft | 444 kts | 287° |
| 2026-05-08 18:06 | 40.83935 | 30.77779 | 36002 ft | 442 kts | 287° |
| 2026-05-08 18:06 | 40.84866 | 30.73883 | 35640 ft | 444 kts | 287° |
| 2026-05-08 18:06 | 40.85795 | 30.69986 | 35282 ft | 446 kts | 287° |
| 2026-05-08 18:06 | 40.86711 | 30.66106 | 34868 ft | 447 kts | 285° |
| 2026-05-08 18:07 | 40.87442 | 30.62089 | 33980 ft | 450 kts | 280° |
| 2026-05-08 18:07 | 40.87999 | 30.58004 | 33041 ft | 450 kts | 279° |
| 2026-05-08 18:07 | 40.88522 | 30.53916 | 32133 ft | 452 kts | 279° |
| 2026-05-08 18:07 | 40.89081 | 30.49817 | 31211 ft | 454 kts | 280° |
| 2026-05-08 18:08 | 40.89675 | 30.45730 | 30469 ft | 454 kts | 280° |
| 2026-05-08 18:08 | 40.90255 | 30.41627 | 29733 ft | 452 kts | 278° |
| 2026-05-08 18:08 | 40.90585 | 30.37513 | 28998 ft | 449 kts | 274° |
| 2026-05-08 18:08 | 40.90769 | 30.33419 | 28571 ft | 441 kts | 273° |
| 2026-05-08 18:09 | 40.90940 | 30.29429 | 28415 ft | 427 kts | 274° |
| 2026-05-08 18:09 | 40.91154 | 30.25566 | 28233 ft | 415 kts | 274° |
| 2026-05-08 18:09 | 40.91385 | 30.21851 | 28037 ft | 404 kts | 275° |
| 2026-05-08 18:09 | 40.91616 | 30.18167 | 27597 ft | 399 kts | 275° |
| 2026-05-08 18:10 | 40.91838 | 30.14515 | 27197 ft | 394 kts | 274° |
| 2026-05-08 18:10 | 40.92060 | 30.10953 | 26803 ft | 391 kts | 275° |
| 2026-05-08 18:10 | 40.92276 | 30.07380 | 26400 ft | 389 kts | 274° |
| 2026-05-08 18:10 | 40.92469 | 30.03824 | 25989 ft | 384 kts | 271° |
| 2026-05-08 18:11 | 40.92158 | 30.00316 | 25623 ft | 386 kts | 256° |
| 2026-05-08 18:11 | 40.91433 | 29.97005 | 25633 ft | 383 kts | 250° |
| 2026-05-08 18:11 | 40.90020 | 29.93980 | 25627 ft | 389 kts | 233° |
| 2026-05-08 18:11 | 40.88489 | 29.91110 | 25248 ft | 387 kts | 243° |
| 2026-05-08 18:12 | 40.87260 | 29.87949 | 24703 ft | 382 kts | 249° |
| 2026-05-08 18:12 | 40.86742 | 29.84520 | 24094 ft | 383 kts | 272° |
| 2026-05-08 18:12 | 40.87199 | 29.81096 | 23705 ft | 377 kts | 288° |
| 2026-05-08 18:12 | 40.88261 | 29.77930 | 23224 ft | 376 kts | 298° |
| 2026-05-08 18:13 | 40.89810 | 29.75208 | 22685 ft | 375 kts | 313° |
| 2026-05-08 18:13 | 40.91736 | 29.72865 | 22109 ft | 376 kts | 316° |
| 2026-05-08 18:13 | 40.93731 | 29.70602 | 21598 ft | 377 kts | 317° |
| 2026-05-08 18:13 | 40.95721 | 29.68373 | 21184 ft | 374 kts | 317° |
| 2026-05-08 18:14 | 40.97699 | 29.66148 | 20768 ft | 371 kts | 316° |
| 2026-05-08 18:14 | 40.99632 | 29.63950 | 20324 ft | 370 kts | 316° |
| 2026-05-08 18:14 | 41.01577 | 29.61716 | 19810 ft | 371 kts | 316° |
| 2026-05-08 18:14 | 41.03527 | 29.59458 | 19355 ft | 371 kts | 316° |
| 2026-05-08 18:15 | 41.05460 | 29.57211 | 18964 ft | 369 kts | 315° |
| 2026-05-08 18:15 | 41.07384 | 29.54967 | 18592 ft | 367 kts | 315° |
| 2026-05-08 18:15 | 41.09272 | 29.52757 | 18170 ft | 366 kts | 315° |
| 2026-05-08 18:15 | 41.11180 | 29.50521 | 17719 ft | 364 kts | 315° |
| 2026-05-08 18:16 | 41.13076 | 29.48297 | 17292 ft | 362 kts | 315° |
| 2026-05-08 18:16 | 41.14960 | 29.46087 | 16864 ft | 361 kts | 315° |
| 2026-05-08 18:16 | 41.16819 | 29.43902 | 16450 ft | 360 kts | 316° |
| 2026-05-08 18:16 | 41.18686 | 29.41707 | 16045 ft | 358 kts | 316° |
| 2026-05-08 18:17 | 41.20550 | 29.39513 | 15651 ft | 357 kts | 316° |
| 2026-05-08 18:17 | 41.22409 | 29.37324 | 15259 ft | 356 kts | 316° |
| 2026-05-08 18:17 | 41.24264 | 29.35137 | 14752 ft | 358 kts | 316° |
| 2026-05-08 18:17 | 41.26130 | 29.32936 | 14347 ft | 358 kts | 316° |
| 2026-05-08 18:18 | 41.27994 | 29.30738 | 14079 ft | 352 kts | 316° |
| 2026-05-08 18:18 | 41.29794 | 29.28614 | 14014 ft | 341 kts | 316° |
| 2026-05-08 18:18 | 41.31525 | 29.26570 | 13852 ft | 333 kts | 316° |
| 2026-05-08 18:18 | 41.33260 | 29.24517 | 13402 ft | 334 kts | 316° |
| 2026-05-08 18:19 | 41.34998 | 29.22459 | 12919 ft | 335 kts | 316° |
| 2026-05-08 18:19 | 41.36741 | 29.20391 | 12502 ft | 335 kts | 316° |
| 2026-05-08 18:19 | 41.38492 | 29.18311 | 11885 ft | 339 kts | 316° |
| 2026-05-08 18:19 | 41.40272 | 29.16200 | 11239 ft | 344 kts | 316° |
| 2026-05-08 18:20 | 41.42079 | 29.14057 | 10567 ft | 350 kts | 316° |
| 2026-05-08 18:20 | 41.43881 | 29.11915 | 9914 ft | 350 kts | 315° |
| 2026-05-08 18:20 | 41.45676 | 29.09784 | 9165 ft | 341 kts | 315° |
| 2026-05-08 18:20 | 41.47422 | 29.07709 | 8448 ft | 331 kts | 315° |
| 2026-05-08 18:21 | 41.49123 | 29.05683 | 7743 ft | 324 kts | 315° |
| 2026-05-08 18:21 | 41.50780 | 29.03707 | 7176 ft | 313 kts | 314° |
| 2026-05-08 18:21 | 41.52371 | 29.01810 | 6676 ft | 301 kts | 314° |
| 2026-05-08 18:21 | 41.53900 | 28.99988 | 6258 ft | 287 kts | 314° |
| 2026-05-08 18:22 | 41.55326 | 28.98286 | 5877 ft | 274 kts | 314° |
| 2026-05-08 18:22 | 41.56728 | 28.96611 | 5603 ft | 265 kts | 314° |
| 2026-05-08 18:22 | 41.58019 | 28.94997 | 5486 ft | 249 kts | 304° |
| 2026-05-08 18:22 | 41.58946 | 28.93102 | 5161 ft | 240 kts | 294° |
| 2026-05-08 18:23 | 41.59732 | 28.91153 | 4839 ft | 237 kts | 293° |
| 2026-05-08 18:23 | 41.60517 | 28.89224 | 4487 ft | 235 kts | 294° |
| 2026-05-08 18:23 | 41.61219 | 28.87293 | 4113 ft | 226 kts | 278° |
| 2026-05-08 18:23 | 41.61321 | 28.85243 | 4052 ft | 223 kts | 265° |
| 2026-05-08 18:24 | 41.61293 | 28.83137 | 4015 ft | 228 kts | 265° |
| 2026-05-08 18:24 | 41.61265 | 28.81065 | 4000 ft | 223 kts | 265° |
| 2026-05-08 18:24 | 41.61237 | 28.79001 | 3990 ft | 220 kts | 264° |
| 2026-05-08 18:24 | 41.60854 | 28.77102 | 3998 ft | 211 kts | 229° |
| 2026-05-08 18:25 | 41.59640 | 28.76078 | 4011 ft | 213 kts | 189° |
| 2026-05-08 18:25 | 41.58155 | 28.76334 | 4025 ft | 217 kts | 171° |
| 2026-05-08 18:25 | 41.56684 | 28.76328 | 4017 ft | 214 kts | 191° |
| 2026-05-08 18:25 | 41.55177 | 28.76059 | 4017 ft | 222 kts | 188° |
| 2026-05-08 18:26 | 41.53636 | 28.75870 | 4001 ft | 219 kts | 187° |
| 2026-05-08 18:26 | 41.52141 | 28.75692 | 3978 ft | 208 kts | 187° |
| 2026-05-08 18:26 | 41.50748 | 28.75524 | 3979 ft | 193 kts | 187° |
| 2026-05-08 18:26 | 41.49444 | 28.75362 | 4043 ft | 189 kts | 188° |
| 2026-05-08 18:27 | 41.48122 | 28.75231 | 4007 ft | 192 kts | 184° |
| 2026-05-08 18:27 | 41.47217 | 28.75234 | 3910 ft | 196 kts | 182° |
| 2026-05-08 18:27 | 41.45388 | 28.75284 | 3497 ft | 196 kts | 182° |
| 2026-05-08 18:27 | 41.44041 | 28.75315 | 3241 ft | 188 kts | 182° |
| 2026-05-08 18:28 | 41.42763 | 28.75343 | 2979 ft | 178 kts | 181° |
| 2026-05-08 18:28 | 41.41558 | 28.75367 | 2745 ft | 170 kts | 182° |
| 2026-05-08 18:28 | 41.40401 | 28.75390 | 2510 ft | 163 kts | 183° |
| 2026-05-08 18:28 | 41.39297 | 28.75411 | 2315 ft | 154 kts | 184° |
| 2026-05-08 18:29 | 41.38231 | 28.75430 | 2110 ft | 149 kts | 183° |
| 2026-05-08 18:29 | 41.37231 | 28.75451 | 1925 ft | 140 kts | 184° |
| 2026-05-08 18:29 | 41.36253 | 28.75469 | 1768 ft | 140 kts | 184° |
| 2026-05-08 18:29 | 41.35286 | 28.75485 | 1594 ft | 140 kts | 183° |
| 2026-05-08 18:30 | 41.34306 | 28.75512 | 1410 ft | 145 kts | 182° |
| 2026-05-08 18:30 | 41.33282 | 28.75540 | 1240 ft | 148 kts | 182° |
| 2026-05-08 18:30 | 41.32253 | 28.75558 | 1025 ft | 148 kts | 182° |
| 2026-05-08 18:30 | 41.31237 | 28.75569 | 779 ft | 144 kts | 180° |
| 2026-05-08 18:31 | 41.30255 | 28.75597 | 621 ft | 140 kts | 180° |
| 2026-05-08 18:31 | 41.29268 | 28.75609 | 417 ft | 142 kts | 180° |
| 2026-05-08 18:31 | 41.28283 | 28.75627 | 336 ft | 135 kts | 179° |
| 2026-05-08 18:31 | 41.27462 | 28.75643 | 337 ft | 97 kts | 179° |
| 2026-05-08 18:32 | 41.26960 | 28.75653 | 337 ft | 39 kts | 179° |
| 2026-05-08 18:32 | 41.26743 | 28.75598 | 333 ft | 21 kts | 203° |
| 2026-05-08 18:32 | 41.26670 | 28.75546 | 333 ft | 9 kts | 218° |
| 2026-05-08 18:32 | 41.26635 | 28.75482 | 335 ft | 9 kts | 246° |
| 2026-05-08 18:33 | 41.26633 | 28.75468 | 339 ft | 1 kts | 256° |
| 2026-05-08 18:33 | 41.26632 | 28.75460 | 339 ft | 1 kts | 261° |
| 2026-05-08 18:33 | 41.26631 | 28.75454 | 339 ft | 0 kts | 262° |
| 2026-05-08 18:33 | 41.26631 | 28.75449 | 339 ft | 1 kts | 262° |
| 2026-05-08 18:34 | 41.26631 | 28.75446 | 339 ft | 1 kts | 263° |
| 2026-05-08 18:34 | 41.26630 | 28.75438 | 339 ft | 1 kts | 263° |
| 2026-05-08 18:34 | 41.26630 | 28.75433 | 334 ft | 0 kts | 264° |
| 2026-05-08 18:34 | 41.26629 | 28.75430 | 339 ft | 0 kts | 264° |
| 2026-05-08 18:35 | 41.26629 | 28.75424 | 339 ft | 1 kts | 265° |
| 2026-05-08 18:35 | 41.26629 | 28.75410 | 334 ft | 2 kts | 266° |
| 2026-05-08 18:35 | 41.26628 | 28.75389 | 334 ft | 3 kts | 269° |
| 2026-05-08 18:35 | 41.26628 | 28.75361 | 339 ft | 3 kts | 269° |
| 2026-05-08 18:36 | 41.26628 | 28.75328 | 334 ft | 4 kts | 269° |
| 2026-05-08 18:36 | 41.26627 | 28.75300 | 339 ft | 0 kts | 269° |
| 2026-05-08 18:36 | 41.26627 | 28.75295 | 339 ft | 1 kts | 269° |
| 2026-05-08 18:36 | 41.26627 | 28.75284 | 339 ft | 2 kts | 269° |
| 2026-05-08 18:37 | 41.26627 | 28.75266 | 339 ft | 2 kts | 269° |
| 2026-05-08 18:37 | 41.26627 | 28.75259 | 339 ft | 0 kts | 269° |
| 2026-05-08 18:37 | 41.26627 | 28.75252 | 339 ft | 1 kts | 269° |
| 2026-05-08 18:37 | 41.26627 | 28.75239 | 334 ft | 2 kts | 269° |
| 2026-05-08 18:38 | 41.26627 | 28.75222 | 334 ft | 2 kts | 274° |
| 2026-05-08 18:38 | 41.26632 | 28.75199 | 339 ft | 3 kts | 287° |
| 2026-05-08 18:38 | 41.26622 | 28.75164 | 335 ft | 7 kts | 231° |
| 2026-05-08 18:38 | 41.26587 | 28.75118 | 339 ft | 7 kts | 237° |
| 2026-05-08 18:39 | 41.26588 | 28.75050 | 334 ft | 8 kts | 285° |
| 2026-05-08 18:39 | 41.26598 | 28.75007 | 339 ft | 2 kts | 287° |
| 2026-05-08 18:39 | 41.26598 | 28.75005 | 339 ft | 0 kts | 287° |